DAL2531 KSAN-KLAX
Flight info
| Callsign | DAL2531 |
|---|---|
| Flight time | 0h 22m |
| Altitude | 10000 |
| Route | CWARD2 SLI |
| Aircraft | B739/M-SDE2E3FGHIRWXY/LB1 |
Departure
| Time | 2026-05-03 22:47 |
|---|---|
| Airport | San Diego International Airport (KSAN) |
Arrival
| Time | 2026-05-03 23:10 |
|---|---|
| Airport | Los Angeles International Airport (KLAX) |
| Time | Latitude | Longitude | Altitude | Speed | Heading |
|---|---|---|---|---|---|
| 2026-05-03 22:27 | 32.73340 | -117.20344 | 26 ft | 0 kts | 266° |
| 2026-05-03 22:37 | 32.73340 | -117.20343 | 26 ft | 2 kts | 266° |
| 2026-05-03 22:37 | 32.73339 | -117.20322 | 26 ft | 2 kts | 273° |
| 2026-05-03 22:37 | 32.73337 | -117.20291 | 22 ft | 4 kts | 282° |
| 2026-05-03 22:38 | 32.73328 | -117.20265 | 26 ft | 4 kts | 333° |
| 2026-05-03 22:38 | 32.73318 | -117.20261 | 22 ft | 1 kts | 345° |
| 2026-05-03 22:39 | 32.73321 | -117.20262 | 22 ft | 2 kts | 345° |
| 2026-05-03 22:40 | 32.73356 | -117.20274 | 22 ft | 7 kts | 344° |
| 2026-05-03 22:40 | 32.73407 | -117.20272 | 21 ft | 7 kts | 12° |
| 2026-05-03 22:40 | 32.73436 | -117.20263 | 21 ft | 0 kts | 15° |
| 2026-05-03 22:41 | 32.73446 | -117.20260 | 22 ft | 5 kts | 15° |
| 2026-05-03 22:41 | 32.73500 | -117.20241 | 24 ft | 10 kts | 16° |
| 2026-05-03 22:41 | 32.73545 | -117.20187 | 24 ft | 12 kts | 83° |
| 2026-05-03 22:41 | 32.73519 | -117.20073 | 27 ft | 16 kts | 105° |
| 2026-05-03 22:42 | 32.73491 | -117.19948 | 26 ft | 15 kts | 105° |
| 2026-05-03 22:42 | 32.73461 | -117.19822 | 31 ft | 17 kts | 105° |
| 2026-05-03 22:42 | 32.73426 | -117.19685 | 27 ft | 17 kts | 105° |
| 2026-05-03 22:42 | 32.73395 | -117.19550 | 27 ft | 17 kts | 105° |
| 2026-05-03 22:43 | 32.73362 | -117.19412 | 26 ft | 18 kts | 108° |
| 2026-05-03 22:43 | 32.73348 | -117.19359 | 25 ft | 18 kts | 107° |
| 2026-05-03 22:43 | 32.73316 | -117.19232 | 25 ft | 18 kts | 105° |
| 2026-05-03 22:43 | 32.73283 | -117.19094 | 27 ft | 17 kts | 105° |
| 2026-05-03 22:44 | 32.73251 | -117.18962 | 27 ft | 16 kts | 105° |
| 2026-05-03 22:44 | 32.73221 | -117.18834 | 27 ft | 16 kts | 105° |
| 2026-05-03 22:44 | 32.73192 | -117.18707 | 29 ft | 17 kts | 105° |
| 2026-05-03 22:44 | 32.73151 | -117.18552 | 29 ft | 21 kts | 107° |
| 2026-05-03 22:45 | 32.73112 | -117.18386 | 29 ft | 21 kts | 105° |
| 2026-05-03 22:45 | 32.73072 | -117.18216 | 26 ft | 23 kts | 107° |
| 2026-05-03 22:45 | 32.73027 | -117.18031 | 24 ft | 23 kts | 106° |
| 2026-05-03 22:45 | 32.72984 | -117.17852 | 23 ft | 22 kts | 105° |
| 2026-05-03 22:46 | 32.72951 | -117.17709 | 21 ft | 11 kts | 95° |
| 2026-05-03 22:46 | 32.72973 | -117.17625 | 25 ft | 11 kts | 50° |
| 2026-05-03 22:46 | 32.73033 | -117.17641 | 24 ft | 12 kts | 293° |
| 2026-05-03 22:46 | 32.73086 | -117.17852 | 22 ft | 54 kts | 286° |
| 2026-05-03 22:47 | 32.73249 | -117.18523 | 27 ft | 111 kts | 286° |
| 2026-05-03 22:47 | 32.73509 | -117.19583 | 40 ft | 153 kts | 288° |
| 2026-05-03 22:47 | 32.73787 | -117.20809 | 430 ft | 160 kts | 286° |
| 2026-05-03 22:47 | 32.74089 | -117.22152 | 837 ft | 172 kts | 287° |
| 2026-05-03 22:48 | 32.74689 | -117.23355 | 1385 ft | 173 kts | 310° |
| 2026-05-03 22:48 | 32.75464 | -117.24414 | 1924 ft | 173 kts | 307° |
| 2026-05-03 22:48 | 32.76248 | -117.25612 | 2102 ft | 193 kts | 305° |
| 2026-05-03 22:48 | 32.77092 | -117.26983 | 2266 ft | 212 kts | 304° |
| 2026-05-03 22:49 | 32.77969 | -117.28463 | 2438 ft | 234 kts | 303° |
| 2026-05-03 22:49 | 32.78938 | -117.30126 | 2837 ft | 251 kts | 303° |
| 2026-05-03 22:49 | 32.79948 | -117.31850 | 3523 ft | 256 kts | 304° |
| 2026-05-03 22:49 | 32.81024 | -117.33556 | 4112 ft | 261 kts | 305° |
| 2026-05-03 22:50 | 32.82140 | -117.35278 | 4705 ft | 265 kts | 305° |
| 2026-05-03 22:50 | 32.83279 | -117.37028 | 5285 ft | 271 kts | 304° |
| 2026-05-03 22:50 | 32.84446 | -117.38824 | 5813 ft | 278 kts | 304° |
| 2026-05-03 22:50 | 32.85636 | -117.40662 | 6395 ft | 283 kts | 303° |
| 2026-05-03 22:51 | 32.86841 | -117.42526 | 7032 ft | 284 kts | 303° |
| 2026-05-03 22:51 | 32.88047 | -117.44393 | 7714 ft | 285 kts | 303° |
| 2026-05-03 22:51 | 32.89258 | -117.46270 | 8409 ft | 287 kts | 303° |
| 2026-05-03 22:51 | 32.90472 | -117.48157 | 9122 ft | 287 kts | 303° |
| 2026-05-03 22:52 | 32.91691 | -117.50052 | 9742 ft | 290 kts | 303° |
| 2026-05-03 22:52 | 32.92921 | -117.51966 | 10011 ft | 293 kts | 303° |
| 2026-05-03 22:52 | 32.94161 | -117.53897 | 10004 ft | 293 kts | 303° |
| 2026-05-03 22:52 | 32.95396 | -117.55819 | 10013 ft | 292 kts | 303° |
| 2026-05-03 22:53 | 32.96626 | -117.57735 | 10019 ft | 291 kts | 303° |
| 2026-05-03 22:53 | 32.97862 | -117.59664 | 10052 ft | 298 kts | 303° |
| 2026-05-03 22:53 | 32.99159 | -117.61695 | 10207 ft | 318 kts | 303° |
| 2026-05-03 22:53 | 33.00542 | -117.63861 | 10373 ft | 339 kts | 303° |
| 2026-05-03 22:54 | 33.02011 | -117.66156 | 10609 ft | 355 kts | 303° |
| 2026-05-03 22:54 | 33.03521 | -117.68511 | 11137 ft | 360 kts | 303° |
| 2026-05-03 22:54 | 33.05042 | -117.70885 | 11758 ft | 362 kts | 303° |
| 2026-05-03 22:54 | 33.06601 | -117.73258 | 11980 ft | 368 kts | 307° |
| 2026-05-03 22:55 | 33.08489 | -117.75403 | 12012 ft | 381 kts | 316° |
| 2026-05-03 22:55 | 33.10558 | -117.77408 | 12003 ft | 384 kts | 317° |
| 2026-05-03 22:55 | 33.12638 | -117.79389 | 12000 ft | 381 kts | 317° |
| 2026-05-03 22:55 | 33.14681 | -117.81399 | 12000 ft | 380 kts | 316° |
| 2026-05-03 22:56 | 33.16694 | -117.83433 | 11998 ft | 379 kts | 315° |
| 2026-05-03 22:56 | 33.18727 | -117.85440 | 11999 ft | 381 kts | 321° |
| 2026-05-03 22:56 | 33.21162 | -117.86744 | 12020 ft | 390 kts | 343° |
| 2026-05-03 22:56 | 33.23826 | -117.87409 | 12011 ft | 392 kts | 346° |
| 2026-05-03 22:57 | 33.26502 | -117.88027 | 11997 ft | 390 kts | 346° |
| 2026-05-03 22:57 | 33.29141 | -117.88642 | 11649 ft | 384 kts | 346° |
| 2026-05-03 22:57 | 33.31751 | -117.89271 | 11022 ft | 383 kts | 345° |
| 2026-05-03 22:57 | 33.34366 | -117.89918 | 10482 ft | 383 kts | 345° |
| 2026-05-03 22:58 | 33.36976 | -117.90570 | 10323 ft | 384 kts | 345° |
| 2026-05-03 22:58 | 33.39583 | -117.91269 | 10212 ft | 385 kts | 342° |
| 2026-05-03 22:58 | 33.42151 | -117.92163 | 10111 ft | 384 kts | 340° |
| 2026-05-03 22:58 | 33.44692 | -117.93126 | 10042 ft | 382 kts | 339° |
| 2026-05-03 22:59 | 33.47222 | -117.94090 | 10019 ft | 381 kts | 339° |
| 2026-05-03 22:59 | 33.49751 | -117.95038 | 10024 ft | 382 kts | 340° |
| 2026-05-03 22:59 | 33.52295 | -117.95975 | 10025 ft | 382 kts | 340° |
| 2026-05-03 22:59 | 33.54841 | -117.96903 | 10020 ft | 382 kts | 340° |
| 2026-05-03 23:00 | 33.57388 | -117.97828 | 10023 ft | 382 kts | 340° |
| 2026-05-03 23:00 | 33.59931 | -117.98754 | 10021 ft | 382 kts | 340° |
| 2026-05-03 23:00 | 33.62472 | -117.99680 | 10032 ft | 382 kts | 340° |
| 2026-05-03 23:00 | 33.64998 | -118.00603 | 10043 ft | 375 kts | 340° |
| 2026-05-03 23:01 | 33.67408 | -118.01485 | 9890 ft | 357 kts | 340° |
| 2026-05-03 23:01 | 33.69756 | -118.02336 | 9661 ft | 340 kts | 340° |
| 2026-05-03 23:01 | 33.71969 | -118.03142 | 9415 ft | 326 kts | 340° |
| 2026-05-03 23:01 | 33.74110 | -118.03926 | 9017 ft | 318 kts | 340° |
| 2026-05-03 23:02 | 33.76198 | -118.04691 | 8524 ft | 313 kts | 340° |
| 2026-05-03 23:02 | 33.78245 | -118.05442 | 8035 ft | 310 kts | 340° |
| 2026-05-03 23:02 | 33.80289 | -118.06181 | 7656 ft | 304 kts | 341° |
| 2026-05-03 23:02 | 33.82305 | -118.06896 | 7226 ft | 300 kts | 341° |
| 2026-05-03 23:03 | 33.84281 | -118.07596 | 6994 ft | 291 kts | 341° |
| 2026-05-03 23:03 | 33.86189 | -118.08274 | 6947 ft | 273 kts | 341° |
| 2026-05-03 23:03 | 33.87922 | -118.08891 | 6941 ft | 255 kts | 341° |
| 2026-05-03 23:03 | 33.89584 | -118.09481 | 6850 ft | 245 kts | 341° |
| 2026-05-03 23:04 | 33.91236 | -118.10067 | 6465 ft | 246 kts | 341° |
| 2026-05-03 23:04 | 33.92852 | -118.10648 | 6090 ft | 245 kts | 341° |
| 2026-05-03 23:04 | 33.94478 | -118.11240 | 5728 ft | 244 kts | 341° |
| 2026-05-03 23:04 | 33.96100 | -118.11847 | 5453 ft | 238 kts | 341° |
| 2026-05-03 23:05 | 33.97644 | -118.12562 | 5031 ft | 238 kts | 324° |
| 2026-05-03 23:05 | 33.98630 | -118.13996 | 4987 ft | 222 kts | 285° |
| 2026-05-03 23:05 | 33.98623 | -118.15802 | 4868 ft | 219 kts | 247° |
| 2026-05-03 23:05 | 33.98002 | -118.17471 | 4587 ft | 220 kts | 248° |
| 2026-05-03 23:06 | 33.97568 | -118.19246 | 4299 ft | 219 kts | 253° |
| 2026-05-03 23:06 | 33.97231 | -118.21027 | 3960 ft | 218 kts | 258° |
| 2026-05-03 23:06 | 33.96998 | -118.22827 | 3649 ft | 216 kts | 260° |
| 2026-05-03 23:06 | 33.96813 | -118.24594 | 3331 ft | 210 kts | 262° |
| 2026-05-03 23:07 | 33.96636 | -118.26323 | 2930 ft | 205 kts | 261° |
| 2026-05-03 23:07 | 33.96462 | -118.28007 | 2466 ft | 203 kts | 261° |
| 2026-05-03 23:07 | 33.96297 | -118.29626 | 2283 ft | 184 kts | 259° |
| 2026-05-03 23:07 | 33.96144 | -118.31100 | 2067 ft | 171 kts | 260° |
| 2026-05-03 23:08 | 33.96002 | -118.32482 | 1683 ft | 169 kts | 261° |
| 2026-05-03 23:08 | 33.95888 | -118.33875 | 1312 ft | 160 kts | 263° |
| 2026-05-03 23:08 | 33.95721 | -118.35124 | 1109 ft | 145 kts | 251° |
| 2026-05-03 23:08 | 33.95480 | -118.36256 | 807 ft | 136 kts | 257° |
| 2026-05-03 23:09 | 33.95327 | -118.37352 | 590 ft | 129 kts | 261° |
| 2026-05-03 23:09 | 33.95210 | -118.38410 | 441 ft | 128 kts | 264° |
| 2026-05-03 23:09 | 33.95094 | -118.39473 | 274 ft | 125 kts | 264° |
| 2026-05-03 23:09 | 33.94989 | -118.40495 | 125 ft | 117 kts | 262° |
| 2026-05-03 23:10 | 33.94900 | -118.41326 | 124 ft | 79 kts | 263° |
| 2026-05-03 23:10 | 33.94849 | -118.41788 | 122 ft | 32 kts | 251° |
| 2026-05-03 23:10 | 33.94757 | -118.41919 | 123 ft | 7 kts | 205° |
| 2026-05-03 23:10 | 33.94721 | -118.41893 | 124 ft | 9 kts | 97° |
| 2026-05-03 23:11 | 33.94730 | -118.41772 | 121 ft | 18 kts | 82° |
| 2026-05-03 23:11 | 33.94746 | -118.41623 | 120 ft | 19 kts | 82° |
| 2026-05-03 23:11 | 33.94767 | -118.41449 | 123 ft | 22 kts | 78° |
| 2026-05-03 23:11 | 33.94796 | -118.41270 | 125 ft | 21 kts | 81° |
| 2026-05-03 23:12 | 33.94813 | -118.41096 | 125 ft | 21 kts | 84° |
| 2026-05-03 23:12 | 33.94828 | -118.40930 | 122 ft | 15 kts | 99° |
| 2026-05-03 23:12 | 33.94781 | -118.40891 | 123 ft | 9 kts | 192° |
| 2026-05-03 23:12 | 33.94724 | -118.40911 | 122 ft | 8 kts | 187° |
| 2026-05-03 23:13 | 33.94682 | -118.40870 | 125 ft | 8 kts | 120° |
| 2026-05-03 23:13 | 33.94672 | -118.40849 | 121 ft | 0 kts | 119° |